Impacts METAR Board
IDs:

KSAN - San Diego Intl Arpt, CA, US

Updated at: 2200 UTC 19 Jul 2018
Potential Impact None Slight Moderate High
Time 19/10Z 19/11Z 19/12Z 19/13Z 19/14Z 19/15Z 19/16Z 19/17Z 19/18Z 19/19Z 19/20Z 19/21Z 19/22Z
Temp69 69 70 70 69 70 73 76 77 78 76 76 75
Dewpt62 63 63 63 63 63 64 64 64 64 64 63 62
Altim29.97 29.97 29.97 29.98 29.99 30.00 30.00 29.98 29.98 29.98 29.99 29.98 29.98
VIS10 10 10 9 10 10 10 10 10 10 10 10 10
CIG-- 12 12 11 11 12 -- -- -- -- -- -- --
CoverSCTOVCOVCOVCOVCOVCFEWFEWSCTSCTSCTSCTSCT
FltCatVFRMVFRMVFRMVFRMVFRMVFRVFRVFRVFRVFRVFRVFRVFR
WX--------------------------
WDir290250022019000220220290210230230
WSpd4 4 0 4 5 0 0 5 7 6 12 9 9
WGst-- -- -- -- -- -- -- -- -- -- -- -- --
Raw hourly METARs
KSAN 190951Z 29004KT 10SM SCT013 21/17 A2997 RMK AO2 SLP147 T02060167
KSAN 191051Z 25004KT 10SM OVC012 21/17 A2997 RMK AO2 SLP148 T02060172
KSAN 191151Z 00000KT 10SM OVC012 21/17 A2997 RMK AO2 SLP147 T02110172 10211 20206 56002
KSAN 191251Z 22004KT 9SM OVC011 21/17 A2998 RMK AO2 SLP152 T02110172
KSAN 191351Z 19005KT 10SM OVC011 21/17 A2999 RMK AO2 SLP156 T02060172
KSAN 191451Z 00000KT 10SM OVC012 21/17 A3000 RMK AO2 SLP158 T02110172 51012
KSAN 191551Z 00000KT 10SM FEW014 23/18 A3000 RMK AO2 SLP159 T02280178
KSAN 191651Z 22005KT 10SM FEW014 FEW200 24/18 A2998 RMK AO2 SLP152 T02440178
KSAN 191751Z 22007KT 10SM FEW014 FEW200 SCT250 25/18 A2998 RMK AO2 SLP151 T02500178 10250 20206 58007
KSAN 191851Z 29006KT 10SM FEW014 FEW060 SCT200 SCT250 26/18 A2998 RMK AO2 SLP152 T02560178
KSAN 191951Z 21012KT 10SM FEW014 FEW060 SCT200 SCT250 24/18 A2999 RMK AO2 SLP154 T02440178
KSAN 192051Z 23009KT 10SM FEW014 FEW060 SCT200 SCT250 24/17 A2998 RMK AO2 SLP153 T02440172 50002
KSAN 192151Z 23009KT 10SM FEW014 FEW060 SCT250 24/17 A2998 RMK AO2 SLP151 T02390167



Page loaded:  22:51 UTC  |   03:51 PM Pacific  |   04:51 PM Mountain  |   05:51 PM Central  |   06:51 PM Eastern

 

ADVISORIES

FORECASTS

FORECASTS

OBSERVATIONS

USER TOOLS

ABOUT US